Time;durP1;ratioP1;P1;durP2;ratioP2;P2;SDS_P1;SDS_P2;PMS_P1;PMS_P2;Temp;Humidity;BMP_temperature;BMP_pressure;BME280_temperature;BME280_humidity;BME280_pressure;Samples;Min_cycle;Max_cycle;Signal;HPM_P1;HPM_P2
2021/01/04 00:02:28;;;;;;;1.83;1.60;;;16.20;49.50;;;;;;6025721;23;20235;-81
2021/01/04 00:05:20;;;;;;;2.42;1.88;;;16.20;49.50;;;;;;6014016;23;20158;-81
2021/01/04 00:08:10;;;;;;;3.63;1.67;;;16.20;49.40;;;;;;6001732;23;20175;-81
2021/01/04 00:11:03;;;;;;;3.15;2.05;;;16.20;49.40;;;;;;6025163;23;20167;-81
2021/01/04 00:13:43;;;;;;;2.58;1.90;;;16.30;49.40;;;;;;6025699;23;20139;-81
2021/01/04 00:16:42;;;;;;;2.00;1.60;;;16.20;49.50;;;;;;6001509;23;20154;-81
2021/01/04 00:19:27;;;;;;;2.53;1.70;;;16.20;49.50;;;;;;6002271;23;20159;-81
2021/01/04 00:21:59;;;;;;;1.80;1.55;;;16.20;49.40;;;;;;6003270;23;20143;-81
2021/01/04 00:24:31;;;;;;;2.45;1.85;;;16.20;49.50;;;;;;6001177;23;20155;-81
2021/01/04 00:27:10;;;;;;;1.52;1.42;;;16.20;49.50;;;;;;6001177;23;20259;-81
2021/01/04 00:29:36;;;;;;;4.20;1.73;;;16.20;49.40;;;;;;6001693;23;20139;-81
2021/01/04 00:32:09;;;;;;;2.35;1.83;;;16.20;49.40;;;;;;6105237;23;20528;-81
2021/01/04 00:34:47;;;;;;;2.30;1.75;;;16.20;49.60;;;;;;6093330;23;20183;-81
2021/01/04 00:37:13;;;;;;;1.98;1.60;;;16.20;49.50;;;;;;6116557;23;20141;-81
2021/01/04 00:40:00;;;;;;;2.35;2.00;;;16.20;49.50;;;;;;6142580;23;20167;-81
2021/01/04 00:42:47;;;;;;;1.90;1.48;;;16.20;49.50;;;;;;6143091;23;20136;-81
2021/01/04 00:45:41;;;;;;;2.05;1.52;;;16.20;49.60;;;;;;6116824;23;20144;-81
2021/01/04 00:48:36;;;;;;;2.78;1.67;;;16.20;49.50;;;;;;6117030;23;20137;-80
2021/01/04 00:51:21;;;;;;;2.22;1.88;;;16.20;49.50;;;;;;6143187;23;20216;-80
2021/01/04 00:53:50;;;;;;;2.28;1.90;;;16.20;49.50;;;;;;6116744;23;20159;-81
2021/01/04 00:56:38;;;;;;;2.90;1.90;;;16.20;49.50;;;;;;6116435;23;20168;-81
2021/01/04 00:59:24;;;;;;;2.90;1.90;;;16.20;49.60;;;;;;6092876;23;20137;-81
2021/01/04 01:02:03;;;;;;;2.05;1.70;;;16.30;49.50;;;;;;6116409;23;20143;-81
2021/01/04 01:04:41;;;;;;;2.20;2.00;;;16.30;49.40;;;;;;6115946;23;20231;-81
2021/01/04 01:07:55;;;;;;;2.65;1.70;;;16.30;49.30;;;;;;6092458;23;20199;-81
2021/01/04 01:10:23;;;;;;;1.77;1.55;;;16.20;49.30;;;;;;6025148;23;20155;-81
2021/01/04 01:13:14;;;;;;;2.08;1.52;;;16.30;49.40;;;;;;6000594;23;20164;-81
2021/01/04 01:16:07;;;;;;;2.22;1.70;;;16.20;49.30;;;;;;6000902;23;20147;-81
2021/01/04 01:18:43;;;;;;;2.30;1.70;;;16.20;49.50;;;;;;6001609;23;20135;-81
2021/01/04 01:21:18;;;;;;;2.85;1.80;;;16.30;49.40;;;;;;6000782;23;20231;-81
2021/01/04 01:23:53;;;;;;;2.75;1.88;;;16.20;49.40;;;;;;6001280;23;20142;-81
2021/01/04 01:26:52;;;;;;;1.92;1.60;;;16.20;49.40;;;;;;5978491;23;20218;-81
2021/01/04 01:30:02;;;;;;;2.10;1.60;;;16.20;49.40;;;;;;6024045;23;20154;-81
2021/01/04 01:32:51;;;;;;;2.22;1.70;;;16.20;49.30;;;;;;5940869;24;20638;-81
2021/01/04 01:35:49;;;;;;;2.53;1.83;;;16.30;49.30;;;;;;5940383;24;20688;-81
2021/01/04 01:38:49;;;;;;;1.85;1.60;;;16.30;49.20;;;;;;5940844;24;20229;-81
2021/01/04 01:41:43;;;;;;;1.75;1.58;;;16.30;49.20;;;;;;5940988;24;20160;-81
2021/01/04 01:44:27;;;;;;;2.22;1.80;;;16.20;49.20;;;;;;5941099;24;20168;-81
2021/01/04 01:47:19;;;;;;;1.77;1.50;;;16.30;49.40;;;;;;5997322;23;20189;-81
2021/01/04 01:50:02;;;;;;;1.95;1.63;;;16.20;49.30;;;;;;6023136;23;20206;-80
2021/01/04 01:52:55;;;;;;;2.13;1.50;;;16.30;49.20;;;;;;6001143;23;20145;-81
2021/01/04 01:55:39;;;;;;;3.30;1.52;;;16.20;49.30;;;;;;6024342;23;20157;-81
2021/01/04 01:58:07;;;;;;;2.10;1.70;;;16.20;49.30;;;;;;6000675;23;20138;-81
2021/01/04 02:01:00;;;;;;;3.25;1.80;;;16.20;49.50;;;;;;6024870;23;20143;-81
2021/01/04 02:03:38;;;;;;;2.35;1.58;;;16.20;49.40;;;;;;5940514;24;20184;-81
2021/01/04 02:06:23;;;;;;;1.85;1.70;;;16.20;49.50;;;;;;5940429;24;20571;-81
2021/01/04 02:08:56;;;;;;;1.83;1.63;;;16.10;49.50;;;;;;5964608;24;20196;-81
2021/01/04 02:11:51;;;;;;;2.15;1.70;;;16.20;49.50;;;;;;5995625;24;20638;-81
2021/01/04 02:14:38;;;;;;;1.88;1.70;;;16.20;49.30;;;;;;5995126;24;20148;-81
2021/01/04 02:17:38;;;;;;;1.77;1.60;;;16.20;49.30;;;;;;5995527;24;20612;-81
2021/01/04 02:20:23;;;;;;;2.08;1.80;;;16.30;49.30;;;;;;5967950;24;20163;-81
2021/01/04 02:23:03;;;;;;;2.60;1.60;;;16.20;49.30;;;;;;5968218;24;20195;-81
2021/01/04 02:25:30;;;;;;;3.33;1.75;;;16.30;49.20;;;;;;5945048;24;20639;-81
2021/01/04 02:28:00;;;;;;;1.90;1.50;;;16.20;49.20;;;;;;5967451;24;20187;-81
2021/01/04 02:30:25;;;;;;;2.50;1.52;;;16.20;49.20;;;;;;5966843;24;20163;-81
2021/01/04 02:32:51;;;;;;;2.13;1.70;;;16.20;49.50;;;;;;5944726;24;20581;-81
2021/01/04 02:35:19;;;;;;;2.50;1.70;;;16.20;49.50;;;;;;5967675;24;20199;-81
2021/01/04 02:37:45;;;;;;;1.75;1.50;;;16.20;49.50;;;;;;5967603;24;20212;-80
2021/01/04 02:40:15;;;;;;;2.28;1.73;;;16.20;49.40;;;;;;5956048;24;20235;-81
2021/01/04 02:42:46;;;;;;;1.73;1.58;;;16.20;49.30;;;;;;5994858;24;20143;-81
2021/01/04 02:45:26;;;;;;;1.98;1.58;;;16.20;49.40;;;;;;5995206;24;20207;-81
2021/01/04 02:47:54;;;;;;;2.45;1.50;;;16.20;50.20;;;;;;5971968;24;20200;-80
2021/01/04 02:50:27;;;;;;;2.58;1.70;;;16.20;49.40;;;;;;5995431;24;20649;-80
2021/01/04 02:53:15;;;;;;;1.60;1.40;;;16.20;49.50;;;;;;5995869;24;20136;-82
2021/01/04 02:55:43;;;;;;;1.92;1.73;;;16.20;49.50;;;;;;5975993;23;20204;-80
2021/01/04 02:58:31;;;;;;;2.47;1.50;;;16.20;49.60;;;;;;6141618;23;20140;-80
2021/01/04 03:01:05;;;;;;;1.88;1.60;;;16.20;49.40;;;;;;6141578;23;20183;-81
2021/01/04 03:03:32;;;;;;;2.60;1.58;;;16.20;49.30;;;;;;6115766;23;20135;-81
2021/01/04 03:06:01;;;;;;;1.65;1.50;;;16.20;49.40;;;;;;6115785;23;20168;-81
2021/01/04 03:08:26;;;;;;;2.08;1.63;;;16.20;49.30;;;;;;6115518;23;20160;-80
2021/01/04 03:10:52;;;;;;;3.83;1.70;;;16.20;49.40;;;;;;6114917;23;20217;-81
2021/01/04 03:13:29;;;;;;;2.35;1.63;;;16.20;49.40;;;;;;6141326;23;20132;-80
2021/01/04 03:16:04;;;;;;;2.88;1.70;;;16.20;49.40;;;;;;6114851;23;20147;-80
2021/01/04 03:19:09;;;;;;;1.67;1.45;;;16.20;49.40;;;;;;6140741;23;20139;-81
2021/01/04 03:21:35;;;;;;;1.90;1.60;;;16.20;49.40;;;;;;6113766;23;20178;-81
2021/01/04 03:24:01;;;;;;;1.50;1.40;;;16.20;49.40;;;;;;6093628;23;20132;-80
2021/01/04 03:26:29;;;;;;;1.90;1.70;;;16.20;49.40;;;;;;6117567;23;20243;-81
2021/01/04 03:28:55;;;;;;;3.28;1.80;;;16.10;49.40;;;;;;6093419;23;20603;-80
2021/01/04 03:31:22;;;;;;;1.60;1.50;;;16.20;49.40;;;;;;6117954;23;20523;-81
2021/01/04 03:33:48;;;;;;;1.63;1.40;;;16.20;49.40;;;;;;6087771;23;20192;-81
2021/01/04 03:36:15;;;;;;;2.13;1.70;;;16.20;49.30;;;;;;6113746;23;20203;-80
2021/01/04 03:38:41;;;;;;;2.08;1.60;;;16.20;49.50;;;;;;6113565;23;20137;-81
2021/01/04 03:41:07;;;;;;;1.77;1.67;;;16.10;49.50;;;;;;6088764;23;20137;-81
2021/01/04 03:43:35;;;;;;;2.33;1.60;;;16.20;49.50;;;;;;6113994;23;20133;-81
2021/01/04 03:46:03;;;;;;;2.25;1.60;;;16.10;49.40;;;;;;6111813;23;20192;-81
2021/01/04 03:48:29;;;;;;;2.38;1.92;;;16.10;49.50;;;;;;6113088;23;20137;-81
2021/01/04 03:51:01;;;;;;;1.63;1.40;;;16.20;49.50;;;;;;6114082;23;20132;-81
2021/01/04 03:53:27;;;;;;;1.67;1.50;;;16.20;49.50;;;;;;6113470;23;20144;-81
2021/01/04 03:56:02;;;;;;;1.80;1.50;;;16.10;49.40;;;;;;6111823;23;20205;-81
2021/01/04 03:58:28;;;;;;;2.00;1.80;;;16.20;49.40;;;;;;6113643;23;20196;-80
2021/01/04 04:00:55;;;;;;;1.92;1.60;;;16.10;49.30;;;;;;6113852;23;20148;-80
2021/01/04 04:03:21;;;;;;;1.60;1.50;;;16.10;49.40;;;;;;6113296;23;20130;-81
2021/01/04 04:05:48;;;;;;;2.08;1.88;;;16.20;49.40;;;;;;6113002;23;20159;-80
2021/01/04 04:08:14;;;;;;;2.90;1.60;;;16.20;49.40;;;;;;6113597;23;20140;-81
2021/01/04 04:10:41;;;;;;;1.70;1.58;;;16.20;49.40;;;;;;6112023;23;20140;-80
2021/01/04 04:13:06;;;;;;;2.47;1.70;;;16.20;49.50;;;;;;6064507;23;20599;-81
2021/01/04 04:15:34;;;;;;;1.95;1.73;;;16.20;49.40;;;;;;6113156;23;20133;-81
2021/01/04 04:18:02;;;;;;;1.88;1.55;;;16.10;49.40;;;;;;6087679;23;20153;-81
2021/01/04 04:20:28;;;;;;;1.75;1.48;;;16.10;49.40;;;;;;6088382;23;20207;-81
2021/01/04 04:22:55;;;;;;;1.75;1.60;;;16.10;49.50;;;;;;6063914;23;20145;-81
2021/01/04 04:25:23;;;;;;;1.83;1.52;;;16.10;49.50;;;;;;6088442;23;20141;-81
2021/01/04 04:27:50;;;;;;;1.92;1.70;;;16.10;49.50;;;;;;6063890;23;20232;-81
2021/01/04 04:30:21;;;;;;;1.88;1.60;;;16.10;49.40;;;;;;6064026;23;20144;-81
2021/01/04 04:32:50;;;;;;;1.88;1.50;;;16.10;49.40;;;;;;6067322;23;20160;-81
2021/01/04 04:35:16;;;;;;;1.73;1.60;;;16.20;49.30;;;;;;6066074;23;20220;-80
2021/01/04 04:37:43;;;;;;;1.88;1.52;;;16.20;49.40;;;;;;6065362;23;20148;-80
2021/01/04 04:40:33;;;;;;;2.97;1.83;;;16.10;49.50;;;;;;6088197;23;20140;-81
2021/01/04 04:43:27;;;;;;;2.05;1.63;;;16.10;49.40;;;;;;6087819;23;20169;-81
2021/01/04 04:45:54;;;;;;;2.20;1.92;;;16.20;49.20;;;;;;6110934;23;20153;-81
2021/01/04 04:48:49;;;;;;;3.00;1.60;;;16.20;49.20;;;;;;6064235;23;20152;-83
2021/01/04 04:51:43;;;;;;;1.48;1.30;;;16.30;49.20;;;;;;6111817;23;20181;-80
2021/01/04 04:54:27;;;;;;;2.58;1.63;;;16.30;49.00;;;;;;6111171;23;20212;-80
2021/01/04 04:57:25;;;;;;;2.00;1.65;;;16.20;49.00;;;;;;6113092;23;20164;-80
2021/01/04 05:00:18;;;;;;;1.75;1.65;;;16.30;48.80;;;;;;6113270;23;20163;-80
2021/01/04 05:03:05;;;;;;;1.40;1.30;;;16.30;48.80;;;;;;5977025;23;20664;-80
2021/01/04 05:05:41;;;;;;;2.28;1.92;;;16.30;48.80;;;;;;5979541;23;20151;-80
2021/01/04 05:08:27;;;;;;;1.88;1.67;;;16.40;48.50;;;;;;6024325;23;20167;-80
2021/01/04 05:10:53;;;;;;;2.10;1.48;;;16.40;48.20;;;;;;6002322;23;20135;-81
2021/01/04 05:13:29;;;;;;;1.30;1.20;;;16.40;48.40;;;;;;5977646;23;20165;-80
2021/01/04 05:16:17;;;;;;;1.73;1.60;;;16.40;48.20;;;;;;6002194;23;20146;-80
2021/01/04 05:18:52;;;;;;;2.33;1.65;;;16.40;48.20;;;;;;6003446;23;20146;-80
2021/01/04 05:21:55;;;;;;;2.65;1.60;;;16.40;48.20;;;;;;6001472;23;20237;-80
2021/01/04 05:24:33;;;;;;;1.60;1.35;;;16.40;48.20;;;;;;6024387;23;20139;-80
2021/01/04 05:27:37;;;;;;;1.52;1.40;;;16.40;48.00;;;;;;6024176;23;20212;-80
2021/01/04 05:30:29;;;;;;;1.77;1.45;;;16.40;48.00;;;;;;6023914;23;20139;-80
2021/01/04 05:33:16;;;;;;;1.77;1.40;;;16.40;48.20;;;;;;6024761;23;20151;-80
2021/01/04 05:35:43;;;;;;;1.75;1.50;;;16.40;47.90;;;;;;6004857;23;20625;-80
2021/01/04 05:39:01;;;;;;;1.52;1.40;;;16.40;47.90;;;;;;6000234;23;20146;-80
2021/01/04 05:41:48;;;;;;;1.70;1.48;;;16.40;48.20;;;;;;6024449;23;20611;-80
2021/01/04 05:44:36;;;;;;;1.75;1.58;;;16.30;48.10;;;;;;6023161;23;20151;-80
2021/01/04 05:47:36;;;;;;;2.25;1.70;;;16.30;48.10;;;;;;6023019;23;20167;-81
2021/01/04 05:50:29;;;;;;;1.70;1.40;;;16.40;47.80;;;;;;5999893;23;20705;-81
2021/01/04 05:53:14;;;;;;;1.90;1.40;;;16.40;47.60;;;;;;5979465;23;20139;-81
2021/01/04 05:56:03;;;;;;;1.92;1.60;;;16.40;47.60;;;;;;6023933;23;20139;-80
2021/01/04 05:58:33;;;;;;;1.98;1.58;;;16.40;47.80;;;;;;6023874;23;20158;-80
2021/01/04 06:01:24;;;;;;;1.55;1.30;;;16.30;47.80;;;;;;6000170;23;20146;-80
2021/01/04 06:04:00;;;;;;;1.55;1.35;;;16.40;47.50;;;;;;6000229;23;20150;-80
2021/01/04 06:06:37;;;;;;;1.63;1.40;;;16.40;47.50;;;;;;5977977;23;20237;-81
2021/01/04 06:09:06;;;;;;;2.03;1.42;;;16.40;47.70;;;;;;5979380;23;20449;-80
2021/01/04 06:12:00;;;;;;;2.22;1.75;;;16.40;47.50;;;;;;6000437;23;20139;-80
2021/01/04 06:14:30;;;;;;;1.42;1.33;;;16.40;47.50;;;;;;5862582;24;20197;-81
2021/01/04 06:17:01;;;;;;;1.50;1.40;;;16.50;47.30;;;;;;5907485;24;20155;-80
2021/01/04 06:19:27;;;;;;;1.55;1.40;;;16.50;47.30;;;;;;5995504;24;20623;-81
2021/01/04 06:21:57;;;;;;;1.63;1.40;;;16.50;47.10;;;;;;5972043;24;20230;-80
2021/01/04 06:24:28;;;;;;;1.92;1.70;;;16.40;47.20;;;;;;5949264;24;20143;-81
2021/01/04 06:26:59;;;;;;;1.48;1.38;;;16.50;47.00;;;;;;5972243;24;20171;-80
2021/01/04 06:29:41;;;;;;;1.77;1.42;;;16.50;47.10;;;;;;5995593;24;20203;-81
2021/01/04 06:32:30;;;;;;;1.83;1.40;;;16.50;47.20;;;;;;5972081;24;20155;-81
2021/01/04 06:35:21;;;;;;;1.92;1.48;;;16.50;46.90;;;;;;5971136;24;20291;-81
2021/01/04 06:37:48;;;;;;;1.88;1.60;;;16.50;47.00;;;;;;5993799;24;20230;-81
2021/01/04 06:40:34;;;;;;;2.72;1.70;;;16.40;47.10;;;;;;5994183;24;20183;-81
2021/01/04 06:43:20;;;;;;;1.55;1.25;;;16.50;46.90;;;;;;5994125;24;20147;-81
2021/01/04 06:46:10;;;;;;;2.25;1.50;;;16.50;47.10;;;;;;5971542;24;20542;-81
2021/01/04 06:49:00;;;;;;;1.55;1.45;;;16.50;46.70;;;;;;5993779;24;20191;-81
2021/01/04 06:51:47;;;;;;;2.10;1.40;;;16.50;46.80;;;;;;6082155;23;20152;-81
2021/01/04 06:54:34;;;;;;;1.33;1.23;;;16.50;46.60;;;;;;6114593;23;20136;-81
2021/01/04 06:57:14;;;;;;;1.65;1.50;;;16.40;46.80;;;;;;6139816;23;20140;-80
2021/01/04 07:00:09;;;;;;;1.55;1.33;;;16.40;46.70;;;;;;6114906;23;20245;-81
2021/01/04 07:03:12;;;;;;;1.58;1.48;;;16.40;46.70;;;;;;6138110;23;20137;-81
2021/01/04 07:05:59;;;;;;;2.60;1.45;;;16.50;46.70;;;;;;6114069;23;20144;-81
2021/01/04 07:08:58;;;;;;;1.88;1.42;;;16.50;46.90;;;;;;6140139;23;20140;-81
2021/01/04 07:11:49;;;;;;;1.40;1.27;;;16.50;47.00;;;;;;6117302;23;20144;-81
2021/01/04 07:14:40;;;;;;;2.47;1.27;;;16.50;47.00;;;;;;6135151;23;20156;-80
2021/01/04 07:17:14;;;;;;;2.33;1.48;;;16.40;47.10;;;;;;6138198;23;20132;-80
2021/01/04 07:20:05;;;;;;;1.60;1.50;;;16.40;47.20;;;;;;6138504;23;20128;-82
2021/01/04 07:22:40;;;;;;;1.90;1.50;;;16.40;48.40;;;;;;6142416;23;20139;-81
2021/01/04 07:25:47;;;;;;;1.42;1.33;;;16.40;48.40;;;;;;6139021;23;20135;-81
2021/01/04 07:28:51;;;;;;;1.52;1.42;;;16.50;47.00;;;;;;6143097;23;20159;-79
2021/01/04 07:31:50;;;;;;;1.88;1.50;;;16.50;47.10;;;;;;6029664;23;20158;-82
2021/01/04 07:34:26;;;;;;;1.60;1.50;;;16.50;47.10;;;;;;5917703;24;654296;-81
2021/01/04 07:37:10;;;;;;;2.72;1.50;;;16.60;46.80;;;;;;5945362;24;20204;-81
2021/01/04 07:39:50;;;;;;;2.47;1.40;;;16.60;46.70;;;;;;5946121;24;20137;-81
2021/01/04 07:42:34;;;;;;;1.33;1.23;;;16.50;46.60;;;;;;5941340;24;20156;-81
2021/01/04 07:45:38;;;;;;;2.05;1.40;;;16.50;46.70;;;;;;5942834;24;20153;-82
2021/01/04 07:48:24;;;;;;;1.40;1.30;;;16.60;46.50;;;;;;5943427;24;20184;-82
2021/01/04 07:51:34;;;;;;;1.48;1.38;;;16.60;46.50;;;;;;5939927;24;20157;-83
2021/01/04 07:54:19;;;;;;;1.98;1.50;;;16.70;46.30;;;;;;5942214;24;20144;-83
2021/01/04 07:57:15;;;;;;;2.33;1.42;;;16.60;46.20;;;;;;5939704;24;20161;-83
2021/01/04 08:00:00;;;;;;;2.05;1.42;;;16.50;46.40;;;;;;5941661;24;20141;-82
2021/01/04 08:03:04;;;;;;;7.85;2.00;;;16.60;46.30;;;;;;5939792;24;20157;-81
2021/01/04 08:05:51;;;;;;;9.80;2.00;;;16.60;46.30;;;;;;5858206;24;20175;-82
2021/01/04 08:08:41;;;;;;;5.57;1.85;;;16.60;46.30;;;;;;5874520;24;20174;-81
2021/01/04 08:11:52;;;;;;;10.90;1.92;;;16.60;46.30;;;;;;5967874;24;20148;-81
2021/01/04 08:14:53;;;;;;;4.57;1.70;;;16.60;46.10;;;;;;5969697;24;20136;-80
2021/01/04 08:18:00;;;;;;;3.88;1.70;;;16.60;46.00;;;;;;5945404;24;20531;-81
2021/01/04 08:20:25;;;;;;;5.10;1.80;;;16.60;45.90;;;;;;5967889;24;20144;-81
2021/01/04 08:23:11;;;;;;;2.33;1.50;;;16.60;46.00;;;;;;5945787;24;20164;-81
2021/01/04 08:25:48;;;;;;;3.65;1.60;;;16.70;45.80;;;;;;5968921;24;20200;-82
2021/01/04 08:28:33;;;;;;;3.92;1.45;;;16.60;45.80;;;;;;5947303;24;20156;-82
2021/01/04 08:31:31;;;;;;;5.25;1.98;;;16.70;45.70;;;;;;5968950;24;20144;-81
2021/01/04 08:34:04;;;;;;;5.63;1.50;;;16.70;45.60;;;;;;5978555;24;20224;-82
2021/01/04 08:36:42;;;;;;;4.45;1.75;;;16.70;45.60;;;;;;5972912;24;20228;-82
2021/01/04 08:39:15;;;;;;;4.32;1.80;;;16.70;45.40;;;;;;5973770;24;20147;-81
2021/01/04 08:42:04;;;;;;;4.40;2.15;;;16.80;45.30;;;;;;6037983;23;20152;-81
2021/01/04 08:44:33;;;;;;;4.25;1.70;;;16.80;46.10;;;;;;6115051;23;20146;-82
2021/01/04 08:47:46;;;;;;;4.10;1.65;;;16.70;45.40;;;;;;6115647;23;20187;-81
2021/01/04 08:50:28;;;;;;;3.60;1.60;;;16.60;45.70;;;;;;6024080;23;20159;-81
2021/01/04 08:53:11;;;;;;;3.50;2.00;;;16.60;45.70;;;;;;5976108;23;20537;-81
2021/01/04 08:55:37;;;;;;;4.85;1.70;;;16.70;45.40;;;;;;6021736;23;20151;-80
2021/01/04 08:58:25;;;;;;;3.53;1.70;;;16.70;45.60;;;;;;5999922;23;20169;-81
2021/01/04 09:01:12;;;;;;;2.78;1.63;;;16.60;45.70;;;;;;5995971;23;20154;-78
2021/01/04 09:03:37;;;;;;;5.60;1.52;;;16.60;45.60;;;;;;6019840;23;20147;-81
2021/01/04 09:06:22;;;;;;;2.45;1.63;;;16.70;45.40;;;;;;5995383;23;20547;-80
2021/01/04 09:08:50;;;;;;;32.50;3.28;;;16.70;45.30;;;;;;6018648;23;20154;-81
2021/01/04 09:11:24;;;;;;;7.47;1.55;;;16.70;45.20;;;;;;5994935;23;20139;-81
2021/01/04 09:13:51;;;;;;;5.20;1.73;;;16.80;45.20;;;;;;6019284;23;20154;-80
2021/01/04 09:16:29;;;;;;;3.70;1.45;;;16.70;45.30;;;;;;6023206;23;20203;-80
2021/01/04 09:19:24;;;;;;;6.60;1.88;;;16.60;45.40;;;;;;5998930;23;20146;-81
2021/01/04 09:21:50;;;;;;;6.10;2.08;;;16.70;45.40;;;;;;6123925;23;20183;-79
2021/01/04 09:24:23;;;;;;;8.55;2.00;;;16.70;45.30;;;;;;6067209;23;20624;-79
2021/01/04 09:26:51;;;;;;;3.67;1.90;;;16.70;45.40;;;;;;6138980;23;20174;-80
2021/01/04 09:29:50;;;;;;;5.30;2.20;;;16.70;45.10;;;;;;6087685;23;20540;-79
2021/01/04 09:32:26;;;;;;;3.38;1.88;;;16.70;45.10;;;;;;5993420;23;20614;-80
2021/01/04 09:34:53;;;;;;;3.35;1.80;;;16.70;45.30;;;;;;6018419;23;20214;-80
2021/01/04 09:37:24;;;;;;;3.13;1.75;;;16.70;45.20;;;;;;6020908;23;20603;-79
2021/01/04 09:39:59;;;;;;;3.85;1.70;;;16.70;45.20;;;;;;5995936;23;20147;-80
2021/01/04 09:42:26;;;;;;;4.63;1.70;;;16.70;45.10;;;;;;5996074;23;20226;-79
2021/01/04 09:45:14;;;;;;;4.22;1.67;;;16.70;45.20;;;;;;5996817;23;20151;-79
2021/01/04 09:48:05;;;;;;;5.95;1.70;;;16.80;45.10;;;;;;5996156;23;20186;-79
2021/01/04 09:50:37;;;;;;;4.05;1.63;;;16.80;45.10;;;;;;6007545;23;20174;-79
2021/01/04 09:53:29;;;;;;;4.25;1.60;;;16.80;45.10;;;;;;5972981;23;20155;-79
2021/01/04 09:56:27;;;;;;;5.78;1.63;;;16.80;45.10;;;;;;6014122;23;20190;-80
2021/01/04 09:59:23;;;;;;;2.53;1.50;;;16.70;45.10;;;;;;6016946;23;20613;-80
2021/01/04 10:02:00;;;;;;;2.70;1.65;;;16.70;45.10;;;;;;6019505;23;20154;-79
2021/01/04 10:04:46;;;;;;;4.13;1.60;;;16.80;45.00;;;;;;6020496;23;20147;-80
2021/01/04 10:07:27;;;;;;;4.95;1.65;;;16.90;44.70;;;;;;6029082;23;20644;-79
2021/01/04 10:09:54;;;;;;;2.47;1.13;;;16.80;44.90;;;;;;6098105;23;20188;-79
2021/01/04 10:12:23;;;;;;;2.08;1.50;;;16.90;44.80;;;;;;6098281;23;20151;-79
2021/01/04 10:14:54;;;;;;;3.42;1.60;;;16.90;44.80;;;;;;6098119;23;20140;-80
2021/01/04 10:17:22;;;;;;;1.90;1.70;;;16.90;44.80;;;;;;6097353;23;20168;-80
2021/01/04 10:19:54;;;;;;;2.92;1.63;;;16.90;44.40;;;;;;6097160;23;20133;-80
2021/01/04 10:22:24;;;;;;;3.78;1.70;;;16.90;44.70;;;;;;6099798;23;20148;-80
2021/01/04 10:25:19;;;;;;;2.97;1.52;;;16.90;44.60;;;;;;6101627;23;20156;-78
2021/01/04 10:27:49;;;;;;;3.03;1.52;;;16.90;44.80;;;;;;6097611;23;20184;-79
2021/01/04 10:30:16;;;;;;;4.32;1.60;;;16.90;44.80;;;;;;6101375;23;20133;-80
2021/01/04 10:32:43;;;;;;;3.10;1.67;;;16.90;44.80;;;;;;6101670;23;20211;-79
2021/01/04 10:35:20;;;;;;;3.08;1.77;;;16.80;44.90;;;;;;6107851;23;20184;-80
2021/01/04 10:37:54;;;;;;;3.47;1.65;;;16.90;44.70;;;;;;6135986;23;20176;-80
2021/01/04 10:40:22;;;;;;;4.03;1.60;;;17.00;44.60;;;;;;6084703;23;20595;-80
2021/01/04 10:42:59;;;;;;;1.85;1.60;;;16.90;44.50;;;;;;6107910;23;20573;-80
2021/01/04 10:45:33;;;;;;;2.28;1.60;;;16.90;44.60;;;;;;6088798;23;20159;-80
2021/01/04 10:48:07;;;;;;;2.30;1.48;;;17.00;44.50;;;;;;6136193;23;20164;-79
2021/01/04 10:50:42;;;;;;;3.38;1.67;;;17.00;44.50;;;;;;6109570;23;20128;-80
2021/01/04 10:53:25;;;;;;;2.22;1.58;;;17.00;44.50;;;;;;6059921;23;20151;-81
2021/01/04 10:56:09;;;;;;;1.55;1.42;;;17.00;44.40;;;;;;6087618;23;20187;-80
2021/01/04 10:58:46;;;;;;;2.22;1.50;;;17.00;44.40;;;;;;6109487;23;20159;-80
2021/01/04 11:01:22;;;;;;;2.95;1.50;;;17.00;44.40;;;;;;6090448;23;20159;-80
2021/01/04 11:03:54;;;;;;;1.65;1.50;;;17.00;44.40;;;;;;6059816;23;20169;-79
2021/01/04 11:06:29;;;;;;;3.20;1.60;;;17.10;44.30;;;;;;6082751;23;20214;-81
2021/01/04 11:08:57;;;;;;;4.10;1.75;;;17.10;44.30;;;;;;6062391;23;20188;-80
2021/01/04 11:11:35;;;;;;;1.85;1.60;;;17.10;44.10;;;;;;6058310;23;20149;-81
2021/01/04 11:14:21;;;;;;;2.60;1.48;;;17.10;44.10;;;;;;6059607;23;20204;-80
2021/01/04 11:16:51;;;;;;;2.42;1.60;;;17.10;44.10;;;;;;6083007;23;20160;-80
2021/01/04 11:19:28;;;;;;;2.63;1.80;;;17.10;44.20;;;;;;6059523;23;20624;-80
2021/01/04 11:21:53;;;;;;;2.33;1.55;;;17.10;44.20;;;;;;6059213;23;20220;-78
2021/01/04 11:24:19;;;;;;;1.70;1.60;;;17.10;44.20;;;;;;6077459;23;20176;-79
2021/01/04 11:26:46;;;;;;;2.63;1.60;;;17.10;44.20;;;;;;6099550;23;20183;-80
2021/01/04 11:29:12;;;;;;;2.90;1.52;;;17.10;44.20;;;;;;6053275;23;20241;-79
2021/01/04 11:31:37;;;;;;;1.88;1.30;;;17.10;44.20;;;;;;6056917;23;20148;-79
2021/01/04 11:34:03;;;;;;;3.13;1.67;;;17.10;44.20;;;;;;6032722;23;20196;-79
2021/01/04 11:36:31;;;;;;;2.67;1.63;;;17.20;44.00;;;;;;6081098;23;20160;-78
2021/01/04 11:38:58;;;;;;;4.15;1.58;;;17.10;44.00;;;;;;6105266;23;20152;-80
2021/01/04 11:41:24;;;;;;;5.72;1.98;;;17.20;44.20;;;;;;6100653;23;20159;-80
2021/01/04 11:43:50;;;;;;;3.60;1.30;;;17.20;44.10;;;;;;6140616;23;20144;-80
2021/01/04 11:46:17;;;;;;;3.00;1.60;;;17.10;44.20;;;;;;6140601;23;20215;-80
2021/01/04 11:48:53;;;;;;;5.03;1.63;;;17.10;44.00;;;;;;6113112;23;20152;-79
2021/01/04 11:51:22;;;;;;;2.65;1.60;;;17.20;44.00;;;;;;6114496;23;20134;-80
2021/01/04 11:53:49;;;;;;;2.97;2.25;;;17.10;44.10;;;;;;6139037;23;20164;-80
2021/01/04 11:56:16;;;;;;;6.32;2.40;;;17.10;44.80;;;;;;6137670;23;20140;-80
2021/01/04 11:58:42;;;;;;;3.58;2.28;;;17.00;44.70;;;;;;6109541;23;20158;-79
2021/01/04 12:01:08;;;;;;;4.65;2.20;;;17.10;44.90;;;;;;6134410;23;20219;-80
2021/01/04 12:03:34;;;;;;;3.05;1.85;;;17.10;44.90;;;;;;6109267;23;20167;-79
2021/01/04 12:06:09;;;;;;;7.00;2.78;;;17.00;44.90;;;;;;6132859;23;20419;-81
2021/01/04 12:08:35;;;;;;;11.15;2.95;;;16.90;44.90;;;;;;6106361;23;20139;-80
2021/01/04 12:11:01;;;;;;;18.20;2.60;;;17.00;44.80;;;;;;6111178;23;20167;-80
2021/01/04 12:13:29;;;;;;;44.33;3.47;;;17.10;44.70;;;;;;6107147;23;20137;-80
2021/01/04 12:15:55;;;;;;;29.23;3.28;;;17.10;44.70;;;;;;6131699;23;20188;-82
2021/01/04 12:18:21;;;;;;;18.30;2.97;;;17.10;44.70;;;;;;6134482;23;20140;-79
2021/01/04 12:20:47;;;;;;;15.93;2.53;;;17.10;44.80;;;;;;6137027;23;20195;-80
2021/01/04 12:23:13;;;;;;;17.90;2.50;;;17.10;44.90;;;;;;6087224;23;20132;-77
2021/01/04 12:25:38;;;;;;;15.50;2.30;;;17.10;44.80;;;;;;6106951;23;20510;-80
2021/01/04 12:28:04;;;;;;;10.70;2.17;;;17.10;44.80;;;;;;6136593;23;20179;-81
2021/01/04 12:30:30;;;;;;;11.82;2.50;;;17.20;44.60;;;;;;6109016;23;20190;-81
2021/01/04 12:32:56;;;;;;;11.63;2.15;;;17.10;44.80;;;;;;6106147;23;20138;-79
2021/01/04 12:35:22;;;;;;;8.95;2.10;;;17.10;44.90;;;;;;6107791;23;20560;-80
2021/01/04 12:37:47;;;;;;;8.45;2.60;;;17.00;44.90;;;;;;6084553;23;20232;-79
2021/01/04 12:40:16;;;;;;;11.18;2.20;;;17.20;44.80;;;;;;6086389;23;20141;-80
2021/01/04 12:42:43;;;;;;;6.82;2.05;;;17.20;44.80;;;;;;6109102;23;20134;-80
2021/01/04 12:45:11;;;;;;;9.40;2.50;;;17.20;44.80;;;;;;6136547;23;20206;-80
2021/01/04 12:47:37;;;;;;;10.35;2.30;;;17.10;45.00;;;;;;6137735;23;20241;-80
2021/01/04 12:50:04;;;;;;;5.95;2.13;;;17.10;45.00;;;;;;6143531;23;20137;-82
2021/01/04 12:52:30;;;;;;;8.07;2.10;;;17.20;45.00;;;;;;6112651;23;20163;-79
2021/01/04 12:54:56;;;;;;;9.82;3.30;;;17.20;45.00;;;;;;6130228;23;20136;-79
2021/01/04 12:57:24;;;;;;;6.65;2.30;;;17.10;45.10;;;;;;6104735;23;20183;-80
2021/01/04 12:59:50;;;;;;;10.20;2.30;;;17.10;45.30;;;;;;6131863;23;20227;-78
2021/01/04 13:02:16;;;;;;;6.00;2.10;;;17.10;45.30;;;;;;6082923;23;20163;-80
2021/01/04 13:04:42;;;;;;;7.35;2.10;;;17.00;45.40;;;;;;6114323;23;20465;-82
2021/01/04 13:07:08;;;;;;;6.75;2.08;;;17.10;45.40;;;;;;6113427;23;20171;-79
2021/01/04 13:09:36;;;;;;;10.63;2.35;;;17.10;45.30;;;;;;6135701;23;20132;-79
2021/01/04 13:12:01;;;;;;;8.18;2.38;;;17.10;45.30;;;;;;6144479;23;20148;-81
2021/01/04 13:14:27;;;;;;;4.75;2.30;;;17.20;45.20;;;;;;6081932;23;20132;-83
2021/01/04 13:16:53;;;;;;;7.65;2.53;;;17.20;45.20;;;;;;6103832;23;20187;-82
2021/01/04 13:19:19;;;;;;;6.75;2.17;;;17.30;45.10;;;;;;6103568;23;20136;-82
2021/01/04 13:21:45;;;;;;;3.85;2.17;;;17.20;45.30;;;;;;6104721;23;20208;-83
2021/01/04 13:24:13;;;;;;;5.05;2.28;;;17.10;45.40;;;;;;6130422;23;20143;-80
2021/01/04 13:26:46;;;;;;;7.05;2.28;;;17.10;45.70;;;;;;6103589;23;20243;-81
2021/01/04 13:29:12;;;;;;;5.60;2.20;;;17.10;45.80;;;;;;6105737;23;20564;-84
2021/01/04 13:31:38;;;;;;;5.00;2.10;;;17.10;45.70;;;;;;6103783;23;20195;-81
2021/01/04 13:34:03;;;;;;;3.85;1.90;;;17.20;45.60;;;;;;6128609;23;20199;-81
2021/01/04 13:36:29;;;;;;;4.63;2.30;;;17.20;45.30;;;;;;6102708;23;20223;-82
2021/01/04 13:38:55;;;;;;;11.30;2.53;;;17.30;45.30;;;;;;6104045;23;20136;-81
2021/01/04 13:41:21;;;;;;;2.80;1.88;;;17.30;45.20;;;;;;6102809;23;20147;-83